sensor_id;sensor_type;location;lat;lon;timestamp;pressure;altitude;pressure_sealevel;temperature
71640;BMP280;60912;48.968;10.124;2024-02-28T00:00:54;96441.22;;;8.31
71640;BMP280;60912;48.968;10.124;2024-02-28T00:03:19;96441.44;;;8.33
71640;BMP280;60912;48.968;10.124;2024-02-28T00:05:46;96437.84;;;8.38
71640;BMP280;60912;48.968;10.124;2024-02-28T00:08:11;96445.84;;;8.36
71640;BMP280;60912;48.968;10.124;2024-02-28T00:10:37;96443.53;;;8.40
71640;BMP280;60912;48.968;10.124;2024-02-28T00:13:02;96438.56;;;8.39
71640;BMP280;60912;48.968;10.124;2024-02-28T00:15:28;96442.25;;;8.41
71640;BMP280;60912;48.968;10.124;2024-02-28T00:17:54;96441.44;;;8.33
71640;BMP280;60912;48.968;10.124;2024-02-28T00:20:19;96445.03;;;8.28
71640;BMP280;60912;48.968;10.124;2024-02-28T00:22:45;96442.19;;;8.34
71640;BMP280;60912;48.968;10.124;2024-02-28T00:25:10;96446.59;;;8.37
71640;BMP280;60912;48.968;10.124;2024-02-28T00:27:36;96446.06;;;8.38
71640;BMP280;60912;48.968;10.124;2024-02-28T00:30:03;96447.75;;;8.41
71640;BMP280;60912;48.968;10.124;2024-02-28T00:32:31;96449.22;;;8.42
71640;BMP280;60912;48.968;10.124;2024-02-28T00:34:57;96439.00;;;8.43
71640;BMP280;60912;48.968;10.124;2024-02-28T00:37:22;96443.00;;;8.42
71640;BMP280;60912;48.968;10.124;2024-02-28T00:39:47;96443.34;;;8.38
71640;BMP280;60912;48.968;10.124;2024-02-28T00:42:13;96438.06;;;8.40
71640;BMP280;60912;48.968;10.124;2024-02-28T00:44:38;96438.56;;;8.39
71640;BMP280;60912;48.968;10.124;2024-02-28T00:47:03;96439.22;;;8.45
71640;BMP280;60912;48.968;10.124;2024-02-28T00:49:29;96441.84;;;8.37
71640;BMP280;60912;48.968;10.124;2024-02-28T00:51:54;96443.34;;;8.38
71640;BMP280;60912;48.968;10.124;2024-02-28T00:54:19;96441.97;;;8.32
71640;BMP280;60912;48.968;10.124;2024-02-28T00:56:46;96445.97;;;8.31
71640;BMP280;60912;48.968;10.124;2024-02-28T00:59:12;96442.38;;;8.23
71640;BMP280;60912;48.968;10.124;2024-02-28T01:01:38;96441.25;;;8.18
71640;BMP280;60912;48.968;10.124;2024-02-28T01:04:03;96443.53;;;8.14
71640;BMP280;60912;48.968;10.124;2024-02-28T01:06:28;96439.31;;;8.13
71640;BMP280;60912;48.968;10.124;2024-02-28T01:08:54;96440.19;;;8.21
71640;BMP280;60912;48.968;10.124;2024-02-28T01:11:19;96447.53;;;8.00
71640;BMP280;60912;48.968;10.124;2024-02-28T01:13:44;96449.44;;;7.92
71640;BMP280;60912;48.968;10.124;2024-02-28T01:16:09;96444.94;;;7.94
71640;BMP280;60912;48.968;10.124;2024-02-28T01:18:35;96443.16;;;7.97
71640;BMP280;60912;48.968;10.124;2024-02-28T01:21:00;96443.00;;;8.02
71640;BMP280;60912;48.968;10.124;2024-02-28T01:23:26;96443.53;;;7.75
71640;BMP280;60912;48.968;10.124;2024-02-28T01:25:51;96446.78;;;7.73
71640;BMP280;60912;48.968;10.124;2024-02-28T01:28:16;96436.97;;;7.78
71640;BMP280;60912;48.968;10.124;2024-02-28T01:30:42;96439.72;;;7.78
71640;BMP280;60912;48.968;10.124;2024-02-28T01:33:07;96440.69;;;7.80
71640;BMP280;60912;48.968;10.124;2024-02-28T01:35:32;96435.72;;;7.92
71640;BMP280;60912;48.968;10.124;2024-02-28T01:37:57;96443.44;;;7.93
71640;BMP280;60912;48.968;10.124;2024-02-28T01:40:23;96441.31;;;7.99
71640;BMP280;60912;48.968;10.124;2024-02-28T01:42:48;96448.22;;;8.06
71640;BMP280;60912;48.968;10.124;2024-02-28T01:45:14;96453.47;;;8.04
71640;BMP280;60912;48.968;10.124;2024-02-28T01:47:41;96451.44;;;7.91
71640;BMP280;60912;48.968;10.124;2024-02-28T01:50:07;96445.03;;;8.02
71640;BMP280;60912;48.968;10.124;2024-02-28T01:52:33;96452.06;;;8.10
71640;BMP280;60912;48.968;10.124;2024-02-28T01:54:59;96465.72;;;8.16
71640;BMP280;60912;48.968;10.124;2024-02-28T01:57:24;96462.88;;;8.22
71640;BMP280;60912;48.968;10.124;2024-02-28T01:59:51;96469.28;;;8.11
71640;BMP280;60912;48.968;10.124;2024-02-28T02:02:18;96470.78;;;8.12
71640;BMP280;60912;48.968;10.124;2024-02-28T02:04:44;96475.44;;;8.17
71640;BMP280;60912;48.968;10.124;2024-02-28T02:07:09;96483.91;;;8.19
71640;BMP280;60912;48.968;10.124;2024-02-28T02:09:34;96487.47;;;8.14
71640;BMP280;60912;48.968;10.124;2024-02-28T02:12:00;96490.66;;;8.18
71640;BMP280;60912;48.968;10.124;2024-02-28T02:14:25;96495.59;;;8.06
71640;BMP280;60912;48.968;10.124;2024-02-28T02:16:51;96504.78;;;7.96
71640;BMP280;60912;48.968;10.124;2024-02-28T02:19:16;96504.94;;;7.85
71640;BMP280;60912;48.968;10.124;2024-02-28T02:21:49;96516.31;;;7.76
71640;BMP280;60912;48.968;10.124;2024-02-28T02:24:16;96518.22;;;7.81
71640;BMP280;60912;48.968;10.124;2024-02-28T02:26:41;96506.84;;;7.77
71640;BMP280;60912;48.968;10.124;2024-02-28T02:29:09;96507.53;;;7.64
71640;BMP280;60912;48.968;10.124;2024-02-28T02:31:34;96515.19;;;7.52
71640;BMP280;60912;48.968;10.124;2024-02-28T02:34:00;96516.88;;;7.55
71640;BMP280;60912;48.968;10.124;2024-02-28T02:36:25;96526.28;;;7.60
71640;BMP280;60912;48.968;10.124;2024-02-28T02:38:50;96521.47;;;7.47
71640;BMP280;60912;48.968;10.124;2024-02-28T02:41:16;96525.44;;;7.33
71640;BMP280;60912;48.968;10.124;2024-02-28T02:43:41;96522.19;;;7.16
71640;BMP280;60912;48.968;10.124;2024-02-28T02:46:06;96539.44;;;7.11
71640;BMP280;60912;48.968;10.124;2024-02-28T02:48:32;96541.28;;;7.21
71640;BMP280;60912;48.968;10.124;2024-02-28T02:50:57;96535.91;;;7.16
71640;BMP280;60912;48.968;10.124;2024-02-28T02:53:22;96538.41;;;7.14
71640;BMP280;60912;48.968;10.124;2024-02-28T02:55:48;96537.47;;;7.30
71640;BMP280;60912;48.968;10.124;2024-02-28T02:58:13;96537.50;;;7.43
71640;BMP280;60912;48.968;10.124;2024-02-28T03:00:38;96552.34;;;7.53
71640;BMP280;60912;48.968;10.124;2024-02-28T03:03:04;96554.84;;;7.51
71640;BMP280;60912;48.968;10.124;2024-02-28T03:05:30;96555.28;;;7.55
71640;BMP280;60912;48.968;10.124;2024-02-28T03:07:56;96558.03;;;7.55
71640;BMP280;60912;48.968;10.124;2024-02-28T03:10:21;96557.00;;;7.58
71640;BMP280;60912;48.968;10.124;2024-02-28T03:12:46;96554.44;;;7.60
71640;BMP280;60912;48.968;10.124;2024-02-28T03:15:12;96561.00;;;7.57
71640;BMP280;60912;48.968;10.124;2024-02-28T03:17:37;96555.66;;;7.65
71640;BMP280;60912;48.968;10.124;2024-02-28T03:20:02;96563.03;;;7.70
71640;BMP280;60912;48.968;10.124;2024-02-28T03:22:28;96565.16;;;7.77
71640;BMP280;60912;48.968;10.124;2024-02-28T03:24:53;96568.25;;;7.87
71640;BMP280;60912;48.968;10.124;2024-02-28T03:27:19;96573.88;;;7.94
71640;BMP280;60912;48.968;10.124;2024-02-28T03:29:44;96573.78;;;8.00
71640;BMP280;60912;48.968;10.124;2024-02-28T03:32:09;96575.25;;;8.01
71640;BMP280;60912;48.968;10.124;2024-02-28T03:34:35;96585.09;;;7.96
71640;BMP280;60912;48.968;10.124;2024-02-28T03:37:00;96579.66;;;7.91
71640;BMP280;60912;48.968;10.124;2024-02-28T03:39:25;96586.88;;;7.94
71640;BMP280;60912;48.968;10.124;2024-02-28T03:41:51;96593.13;;;7.76
71640;BMP280;60912;48.968;10.124;2024-02-28T03:44:16;96597.31;;;7.63
71640;BMP280;60912;48.968;10.124;2024-02-28T03:46:42;96592.25;;;7.67
71640;BMP280;60912;48.968;10.124;2024-02-28T03:49:07;96604.28;;;7.64
71640;BMP280;60912;48.968;10.124;2024-02-28T03:51:39;96599.72;;;7.67
71640;BMP280;60912;48.968;10.124;2024-02-28T03:54:05;96602.13;;;7.57
71640;BMP280;60912;48.968;10.124;2024-02-28T03:56:31;96606.34;;;7.58
71640;BMP280;60912;48.968;10.124;2024-02-28T03:58:56;96605.28;;;7.61
71640;BMP280;60912;48.968;10.124;2024-02-28T04:01:21;96602.56;;;7.61
71640;BMP280;60912;48.968;10.124;2024-02-28T04:03:47;96610.13;;;7.55
71640;BMP280;60912;48.968;10.124;2024-02-28T04:06:12;96620.41;;;7.49
71640;BMP280;60912;48.968;10.124;2024-02-28T04:08:37;96620.16;;;7.53
71640;BMP280;60912;48.968;10.124;2024-02-28T04:11:03;96626.06;;;7.38
71640;BMP280;60912;48.968;10.124;2024-02-28T04:13:28;96623.78;;;7.42
71640;BMP280;60912;48.968;10.124;2024-02-28T04:15:54;96613.44;;;7.48
71640;BMP280;60912;48.968;10.124;2024-02-28T04:18:19;96613.00;;;7.44
71640;BMP280;60912;48.968;10.124;2024-02-28T04:20:44;96606.72;;;7.49
71640;BMP280;60912;48.968;10.124;2024-02-28T04:23:10;96603.59;;;7.58
71640;BMP280;60912;48.968;10.124;2024-02-28T04:25:35;96603.81;;;7.60
71640;BMP280;60912;48.968;10.124;2024-02-28T04:28:02;96602.78;;;7.63
71640;BMP280;60912;48.968;10.124;2024-02-28T04:30:27;96598.03;;;7.64
71640;BMP280;60912;48.968;10.124;2024-02-28T04:32:53;96598.31;;;7.60
71640;BMP280;60912;48.968;10.124;2024-02-28T04:35:18;96599.69;;;7.54
71640;BMP280;60912;48.968;10.124;2024-02-28T04:37:47;96599.69;;;7.54
71640;BMP280;60912;48.968;10.124;2024-02-28T04:40:13;96607.38;;;7.55
71640;BMP280;60912;48.968;10.124;2024-02-28T04:42:39;96605.59;;;7.58
71640;BMP280;60912;48.968;10.124;2024-02-28T04:45:05;96611.97;;;7.47
71640;BMP280;60912;48.968;10.124;2024-02-28T04:47:31;96612.06;;;7.42
71640;BMP280;60912;48.968;10.124;2024-02-28T04:49:57;96618.22;;;7.29
71640;BMP280;60912;48.968;10.124;2024-02-28T04:52:22;96619.50;;;7.04
71640;BMP280;60912;48.968;10.124;2024-02-28T04:54:47;96623.50;;;7.03
71640;BMP280;60912;48.968;10.124;2024-02-28T04:57:13;96613.19;;;7.09
71640;BMP280;60912;48.968;10.124;2024-02-28T04:59:39;96610.41;;;7.14
71640;BMP280;60912;48.968;10.124;2024-02-28T05:02:04;96613.66;;;7.13
71640;BMP280;60912;48.968;10.124;2024-02-28T05:04:30;96620.63;;;7.14
71640;BMP280;60912;48.968;10.124;2024-02-28T05:06:55;96626.34;;;7.16
71640;BMP280;60912;48.968;10.124;2024-02-28T05:09:20;96630.00;;;7.00
71640;BMP280;60912;48.968;10.124;2024-02-28T05:11:46;96636.69;;;7.04
71640;BMP280;60912;48.968;10.124;2024-02-28T05:14:11;96632.09;;;7.12
71640;BMP280;60912;48.968;10.124;2024-02-28T05:16:36;96634.25;;;7.19
71640;BMP280;60912;48.968;10.124;2024-02-28T05:19:02;96641.91;;;7.26
71640;BMP280;60912;48.968;10.124;2024-02-28T05:21:29;96639.53;;;7.17
71640;BMP280;60912;48.968;10.124;2024-02-28T05:23:54;96646.06;;;6.90
71640;BMP280;60912;48.968;10.124;2024-02-28T05:26:20;96644.31;;;6.93
71640;BMP280;60912;48.968;10.124;2024-02-28T05:28:45;96655.16;;;6.98
71640;BMP280;60912;48.968;10.124;2024-02-28T05:31:24;96645.56;;;6.92
71640;BMP280;60912;48.968;10.124;2024-02-28T05:33:54;96648.06;;;6.90
71640;BMP280;60912;48.968;10.124;2024-02-28T05:36:20;96654.00;;;6.94
71640;BMP280;60912;48.968;10.124;2024-02-28T05:38:46;96649.66;;;6.79
71640;BMP280;60912;48.968;10.124;2024-02-28T05:41:11;96652.41;;;6.79
71640;BMP280;60912;48.968;10.124;2024-02-28T05:43:38;96655.41;;;6.76
71640;BMP280;60912;48.968;10.124;2024-02-28T05:46:03;96666.50;;;6.83
71640;BMP280;60912;48.968;10.124;2024-02-28T05:48:29;96666.50;;;6.83
71640;BMP280;60912;48.968;10.124;2024-02-28T05:50:54;96672.31;;;6.80
71640;BMP280;60912;48.968;10.124;2024-02-28T05:53:19;96663.59;;;6.81
71640;BMP280;60912;48.968;10.124;2024-02-28T05:55:45;96673.06;;;6.80
71640;BMP280;60912;48.968;10.124;2024-02-28T05:58:10;96681.81;;;6.73
71640;BMP280;60912;48.968;10.124;2024-02-28T06:00:36;96682.84;;;6.70
71640;BMP280;60912;48.968;10.124;2024-02-28T06:03:02;96689.78;;;6.71
71640;BMP280;60912;48.968;10.124;2024-02-28T06:05:28;96694.00;;;6.78
71640;BMP280;60912;48.968;10.124;2024-02-28T06:07:53;96695.25;;;6.77
71640;BMP280;60912;48.968;10.124;2024-02-28T06:10:19;96690.50;;;6.77
71640;BMP280;60912;48.968;10.124;2024-02-28T06:12:46;96693.00;;;6.75
71640;BMP280;60912;48.968;10.124;2024-02-28T06:15:11;96691.88;;;6.65
71640;BMP280;60912;48.968;10.124;2024-02-28T06:17:36;96700.84;;;6.60
71640;BMP280;60912;48.968;10.124;2024-02-28T06:20:02;96705.56;;;6.65
71640;BMP280;60912;48.968;10.124;2024-02-28T06:22:27;96706.06;;;6.64
71640;BMP280;60912;48.968;10.124;2024-02-28T06:24:53;96702.06;;;6.65
71640;BMP280;60912;48.968;10.124;2024-02-28T06:27:18;96705.31;;;6.63
71640;BMP280;60912;48.968;10.124;2024-02-28T06:29:43;96713.25;;;6.67
71640;BMP280;60912;48.968;10.124;2024-02-28T06:32:09;96725.31;;;6.53
71640;BMP280;60912;48.968;10.124;2024-02-28T06:34:34;96728.31;;;6.49
71640;BMP280;60912;48.968;10.124;2024-02-28T06:37:00;96732.03;;;6.52
71640;BMP280;60912;48.968;10.124;2024-02-28T06:39:25;96742.94;;;6.57
71640;BMP280;60912;48.968;10.124;2024-02-28T06:41:50;96746.00;;;6.48
71640;BMP280;60912;48.968;10.124;2024-02-28T06:44:18;96749.72;;;6.51
71640;BMP280;60912;48.968;10.124;2024-02-28T06:46:44;96759.94;;;6.50
71640;BMP280;60912;48.968;10.124;2024-02-28T06:49:09;96758.94;;;6.53
71640;BMP280;60912;48.968;10.124;2024-02-28T06:51:34;96775.84;;;6.52
71640;BMP280;60912;48.968;10.124;2024-02-28T06:54:00;96777.28;;;6.58
71640;BMP280;60912;48.968;10.124;2024-02-28T06:56:25;96779.00;;;6.61
71640;BMP280;60912;48.968;10.124;2024-02-28T06:58:50;96784.41;;;6.37
71640;BMP280;60912;48.968;10.124;2024-02-28T07:01:17;96778.22;;;6.31
71640;BMP280;60912;48.968;10.124;2024-02-28T07:03:42;96790.28;;;6.46
71640;BMP280;60912;48.968;10.124;2024-02-28T07:06:08;96790.28;;;6.52
71640;BMP280;60912;48.968;10.124;2024-02-28T07:08:33;96800.28;;;6.44
71640;BMP280;60912;48.968;10.124;2024-02-28T07:10:58;96799.00;;;6.56
71640;BMP280;60912;48.968;10.124;2024-02-28T07:13:24;96804.66;;;6.58
71640;BMP280;60912;48.968;10.124;2024-02-28T07:15:49;96806.63;;;6.63
71640;BMP280;60912;48.968;10.124;2024-02-28T07:18:14;96807.63;;;6.60
71640;BMP280;60912;48.968;10.124;2024-02-28T07:20:40;96806.88;;;6.65
71640;BMP280;60912;48.968;10.124;2024-02-28T07:23:05;96807.13;;;6.67
71640;BMP280;60912;48.968;10.124;2024-02-28T07:25:31;96799.56;;;6.73
71640;BMP280;60912;48.968;10.124;2024-02-28T07:27:58;96794.59;;;6.72
71640;BMP280;60912;48.968;10.124;2024-02-28T07:30:24;96801.06;;;6.80
71640;BMP280;60912;48.968;10.124;2024-02-28T07:32:50;96799.81;;;6.81
71640;BMP280;60912;48.968;10.124;2024-02-28T07:35:15;96791.09;;;6.82
71640;BMP280;60912;48.968;10.124;2024-02-28T07:37:41;96797.56;;;6.79
71640;BMP280;60912;48.968;10.124;2024-02-28T07:40:07;96792.94;;;6.69
71640;BMP280;60912;48.968;10.124;2024-02-28T07:42:33;96803.66;;;6.61
71640;BMP280;60912;48.968;10.124;2024-02-28T07:45:00;96795.59;;;6.74
71640;BMP280;60912;48.968;10.124;2024-02-28T07:47:25;96802.75;;;6.83
71640;BMP280;60912;48.968;10.124;2024-02-28T07:49:51;96802.56;;;6.75
71640;BMP280;60912;48.968;10.124;2024-02-28T07:52:17;96810.28;;;6.77
71640;BMP280;60912;48.968;10.124;2024-02-28T07:54:42;96809.38;;;6.63
71640;BMP280;60912;48.968;10.124;2024-02-28T07:57:11;96821.41;;;6.49
71640;BMP280;60912;48.968;10.124;2024-02-28T07:59:40;96823.47;;;6.43
71640;BMP280;60912;48.968;10.124;2024-02-28T08:02:07;96830.84;;;6.54
71640;BMP280;60912;48.968;10.124;2024-02-28T08:04:32;96829.25;;;6.69
71640;BMP280;60912;48.968;10.124;2024-02-28T08:06:57;96829.34;;;6.94
71640;BMP280;60912;48.968;10.124;2024-02-28T08:09:23;96830.94;;;7.08
71640;BMP280;60912;48.968;10.124;2024-02-28T08:11:48;96835.81;;;7.20
71640;BMP280;60912;48.968;10.124;2024-02-28T08:14:13;96836.47;;;7.32
71640;BMP280;60912;48.968;10.124;2024-02-28T08:16:39;96836.69;;;7.34
71640;BMP280;60912;48.968;10.124;2024-02-28T08:19:04;96838.16;;;7.41
71640;BMP280;60912;48.968;10.124;2024-02-28T08:21:29;96842.78;;;7.51
71640;BMP280;60912;48.968;10.124;2024-02-28T08:23:55;96841.66;;;7.60
71640;BMP280;60912;48.968;10.124;2024-02-28T08:26:20;96853.25;;;7.47
71640;BMP280;60912;48.968;10.124;2024-02-28T08:28:45;96860.22;;;7.48
71640;BMP280;60912;48.968;10.124;2024-02-28T08:31:11;96852.75;;;7.49
71640;BMP280;60912;48.968;10.124;2024-02-28T08:33:36;96854.59;;;7.41
71640;BMP280;60912;48.968;10.124;2024-02-28T08:36:02;96847.75;;;7.23
71640;BMP280;60912;48.968;10.124;2024-02-28T08:38:27;96852.91;;;7.32
71640;BMP280;60912;48.968;10.124;2024-02-28T08:40:52;96857.84;;;7.39
71640;BMP280;60912;48.968;10.124;2024-02-28T08:43:18;96844.97;;;6.99
71640;BMP280;60912;48.968;10.124;2024-02-28T08:45:43;96854.16;;;7.07
71640;BMP280;60912;48.968;10.124;2024-02-28T08:48:09;96859.75;;;7.20
71640;BMP280;60912;48.968;10.124;2024-02-28T08:50:34;96854.41;;;7.33
71640;BMP280;60912;48.968;10.124;2024-02-28T08:53:01;96855.09;;;7.39
71640;BMP280;60912;48.968;10.124;2024-02-28T08:55:27;96856.25;;;7.49
71640;BMP280;60912;48.968;10.124;2024-02-28T08:57:54;96862.22;;;7.53
71640;BMP280;60912;48.968;10.124;2024-02-28T09:00:19;96860.22;;;7.48
71640;BMP280;60912;48.968;10.124;2024-02-28T09:02:45;96863.22;;;7.50
71640;BMP280;60912;48.968;10.124;2024-02-28T09:05:10;96862.75;;;7.46
71640;BMP280;60912;48.968;10.124;2024-02-28T09:07:35;96860.41;;;7.56
71640;BMP280;60912;48.968;10.124;2024-02-28T09:10:04;96857.47;;;7.54
71640;BMP280;60912;48.968;10.124;2024-02-28T09:12:31;96862.75;;;7.46
71640;BMP280;60912;48.968;10.124;2024-02-28T09:14:56;96857.84;;;7.39
71640;BMP280;60912;48.968;10.124;2024-02-28T09:17:23;96866.13;;;7.34
71640;BMP280;60912;48.968;10.124;2024-02-28T09:19:48;96859.50;;;7.48
71640;BMP280;60912;48.968;10.124;2024-02-28T09:22:16;96864.41;;;7.55
71640;BMP280;60912;48.968;10.124;2024-02-28T09:24:42;96866.41;;;7.54
71640;BMP280;60912;48.968;10.124;2024-02-28T09:27:07;96862.66;;;7.57
71640;BMP280;60912;48.968;10.124;2024-02-28T09:29:33;96864.22;;;7.53
71640;BMP280;60912;48.968;10.124;2024-02-28T09:31:58;96864.22;;;7.53
71640;BMP280;60912;48.968;10.124;2024-02-28T09:34:25;96871.19;;;7.54
71640;BMP280;60912;48.968;10.124;2024-02-28T09:36:50;96869.78;;;7.66
71640;BMP280;60912;48.968;10.124;2024-02-28T09:39:16;96876.31;;;7.63
71640;BMP280;60912;48.968;10.124;2024-02-28T09:41:41;96866.09;;;7.63
71640;BMP280;60912;48.968;10.124;2024-02-28T09:44:07;96877.75;;;7.69
71640;BMP280;60912;48.968;10.124;2024-02-28T09:46:33;96877.28;;;7.65
71640;BMP280;60912;48.968;10.124;2024-02-28T09:49:05;96879.72;;;7.45
71640;BMP280;60912;48.968;10.124;2024-02-28T09:51:34;96876.56;;;7.59
71640;BMP280;60912;48.968;10.124;2024-02-28T09:54:01;96882.81;;;7.60
71640;BMP280;60912;48.968;10.124;2024-02-28T09:56:27;96888.03;;;7.63
71640;BMP280;60912;48.968;10.124;2024-02-28T09:58:54;96891.09;;;7.79
71640;BMP280;60912;48.968;10.124;2024-02-28T10:01:21;96890.09;;;7.82
71640;BMP280;60912;48.968;10.124;2024-02-28T10:03:47;96885.47;;;7.95
71640;BMP280;60912;48.968;10.124;2024-02-28T10:06:14;96892.31;;;8.07
71640;BMP280;60912;48.968;10.124;2024-02-28T10:08:40;96892.22;;;8.13
71640;BMP280;60912;48.968;10.124;2024-02-28T10:11:06;96888.09;;;8.25
71640;BMP280;60912;48.968;10.124;2024-02-28T10:13:31;96894.63;;;8.22
71640;BMP280;60912;48.968;10.124;2024-02-28T10:15:57;96896.31;;;8.25
71640;BMP280;60912;48.968;10.124;2024-02-28T10:18:22;96896.03;;;8.29
71640;BMP280;60912;48.968;10.124;2024-02-28T10:20:47;96902.41;;;8.37
71640;BMP280;60912;48.968;10.124;2024-02-28T10:23:13;96902.41;;;8.18
71640;BMP280;60912;48.968;10.124;2024-02-28T10:25:43;96909.44;;;8.14
71640;BMP280;60912;48.968;10.124;2024-02-28T10:28:09;96913.94;;;8.11
71640;BMP280;60912;48.968;10.124;2024-02-28T10:30:39;96912.19;;;8.14
71640;BMP280;60912;48.968;10.124;2024-02-28T10:33:10;96914.75;;;8.30
71640;BMP280;60912;48.968;10.124;2024-02-28T10:35:36;96905.25;;;8.31
71640;BMP280;60912;48.968;10.124;2024-02-28T10:38:02;96916.50;;;8.09
71640;BMP280;60912;48.968;10.124;2024-02-28T10:40:27;96914.28;;;8.26
71640;BMP280;60912;48.968;10.124;2024-02-28T10:42:53;96915.34;;;8.61
71640;BMP280;60912;48.968;10.124;2024-02-28T10:45:20;96908.66;;;8.56
71640;BMP280;60912;48.968;10.124;2024-02-28T10:47:50;96911.41;;;8.56
71640;BMP280;60912;48.968;10.124;2024-02-28T10:50:16;96923.00;;;8.68
71640;BMP280;60912;48.968;10.124;2024-02-28T10:52:46;96919.00;;;8.69
71640;BMP280;60912;48.968;10.124;2024-02-28T10:55:21;96930.13;;;8.58
71640;BMP280;60912;48.968;10.124;2024-02-28T10:57:57;96932.66;;;8.56
71640;BMP280;60912;48.968;10.124;2024-02-28T11:00:24;96918.50;;;8.70
71640;BMP280;60912;48.968;10.124;2024-02-28T11:02:49;96930.19;;;8.89
71640;BMP280;60912;48.968;10.124;2024-02-28T11:05:15;96931.84;;;8.98
71640;BMP280;60912;48.968;10.124;2024-02-28T11:07:43;96937.75;;;9.02
71640;BMP280;60912;48.968;10.124;2024-02-28T11:10:09;96940.09;;;9.11
71640;BMP280;60912;48.968;10.124;2024-02-28T11:12:35;96944.28;;;8.99
71640;BMP280;60912;48.968;10.124;2024-02-28T11:15:03;96945.78;;;9.00
71640;BMP280;60912;48.968;10.124;2024-02-28T11:17:32;96943.72;;;8.87
71640;BMP280;60912;48.968;10.124;2024-02-28T11:19:58;96938.59;;;8.97
71640;BMP280;60912;48.968;10.124;2024-02-28T11:22:24;96940.69;;;8.72
71640;BMP280;60912;48.968;10.124;2024-02-28T11:24:53;96943.78;;;8.82
71640;BMP280;60912;48.968;10.124;2024-02-28T11:27:19;96940.88;;;8.93
71640;BMP280;60912;48.968;10.124;2024-02-28T11:29:44;96943.22;;;9.02
71640;BMP280;60912;48.968;10.124;2024-02-28T11:32:12;96938.03;;;9.17
71640;BMP280;60912;48.968;10.124;2024-02-28T11:34:38;96934.31;;;9.15
71640;BMP280;60912;48.968;10.124;2024-02-28T11:37:08;96924.63;;;9.27
71640;BMP280;60912;48.968;10.124;2024-02-28T11:39:34;96926.25;;;9.35
71640;BMP280;60912;48.968;10.124;2024-02-28T11:42:10;96934.84;;;9.45
71640;BMP280;60912;48.968;10.124;2024-02-28T11:44:36;96935.59;;;9.46
71640;BMP280;60912;48.968;10.124;2024-02-28T11:47:01;96937.69;;;9.53
71640;BMP280;60912;48.968;10.124;2024-02-28T11:49:27;96937.94;;;9.68
71640;BMP280;60912;48.968;10.124;2024-02-28T11:51:53;96943.38;;;9.73
71640;BMP280;60912;48.968;10.124;2024-02-28T11:54:18;96944.00;;;9.79
71640;BMP280;60912;48.968;10.124;2024-02-28T11:56:43;96943.47;;;9.81
71640;BMP280;60912;48.968;10.124;2024-02-28T11:59:11;96946.41;;;9.83
71640;BMP280;60912;48.968;10.124;2024-02-28T12:01:43;96946.13;;;9.87
71640;BMP280;60912;48.968;10.124;2024-02-28T12:04:12;96939.22;;;9.93
71640;BMP280;60912;48.968;10.124;2024-02-28T12:06:39;96941.53;;;9.76
71640;BMP280;60912;48.968;10.124;2024-02-28T12:09:09;96935.38;;;9.57
71640;BMP280;60912;48.968;10.124;2024-02-28T12:11:35;96935.59;;;9.59
71640;BMP280;60912;48.968;10.124;2024-02-28T12:14:07;96936.53;;;9.74
71640;BMP280;60912;48.968;10.124;2024-02-28T12:16:37;96942.63;;;9.86
71640;BMP280;60912;48.968;10.124;2024-02-28T12:19:12;96941.13;;;9.72
71640;BMP280;60912;48.968;10.124;2024-02-28T12:21:39;96940.69;;;9.68
71640;BMP280;60912;48.968;10.124;2024-02-28T12:24:07;96934.34;;;9.60
71640;BMP280;60912;48.968;10.124;2024-02-28T12:26:32;96931.91;;;9.69
71640;BMP280;60912;48.968;10.124;2024-02-28T12:28:58;96924.19;;;9.68
71640;BMP280;60912;48.968;10.124;2024-02-28T12:31:23;96926.22;;;9.81
71640;BMP280;60912;48.968;10.124;2024-02-28T12:33:49;96918.03;;;9.75
71640;BMP280;60912;48.968;10.124;2024-02-28T12:36:14;96915.72;;;9.79
71640;BMP280;60912;48.968;10.124;2024-02-28T12:38:39;96917.41;;;9.95
71640;BMP280;60912;48.968;10.124;2024-02-28T12:41:06;96914.88;;;10.10
71640;BMP280;60912;48.968;10.124;2024-02-28T12:43:32;96918.16;;;9.96
71640;BMP280;60912;48.968;10.124;2024-02-28T12:45:58;96918.47;;;9.79
71640;BMP280;60912;48.968;10.124;2024-02-28T12:48:23;96911.94;;;9.82
71640;BMP280;60912;48.968;10.124;2024-02-28T12:50:49;96912.13;;;9.97
71640;BMP280;60912;48.968;10.124;2024-02-28T12:53:14;96913.59;;;10.11
71640;BMP280;60912;48.968;10.124;2024-02-28T12:55:39;96917.66;;;9.97
71640;BMP280;60912;48.968;10.124;2024-02-28T12:58:05;96927.38;;;9.85
71640;BMP280;60912;48.968;10.124;2024-02-28T13:00:31;96928.53;;;9.90
71640;BMP280;60912;48.968;10.124;2024-02-28T13:02:56;96921.00;;;9.77
71640;BMP280;60912;48.968;10.124;2024-02-28T13:05:22;96919.72;;;9.65
71640;BMP280;60912;48.968;10.124;2024-02-28T13:07:47;96931.78;;;9.49
71640;BMP280;60912;48.968;10.124;2024-02-28T13:10:12;96925.44;;;9.67
71640;BMP280;60912;48.968;10.124;2024-02-28T13:12:38;96928.28;;;9.74
71640;BMP280;60912;48.968;10.124;2024-02-28T13:15:05;96925.88;;;9.84
71640;BMP280;60912;48.968;10.124;2024-02-28T13:17:31;96922.47;;;9.91
71640;BMP280;60912;48.968;10.124;2024-02-28T13:19:56;96924.63;;;9.85
71640;BMP280;60912;48.968;10.124;2024-02-28T13:22:21;96924.38;;;9.57
71640;BMP280;60912;48.968;10.124;2024-02-28T13:24:47;96920.28;;;9.31
71640;BMP280;60912;48.968;10.124;2024-02-28T13:27:12;96919.88;;;9.27
71640;BMP280;60912;48.968;10.124;2024-02-28T13:29:37;96924.88;;;9.10
71640;BMP280;60912;48.968;10.124;2024-02-28T13:32:03;96921.53;;;9.17
71640;BMP280;60912;48.968;10.124;2024-02-28T13:34:28;96923.13;;;9.26
71640;BMP280;60912;48.968;10.124;2024-02-28T13:36:55;96925.63;;;9.43
71640;BMP280;60912;48.968;10.124;2024-02-28T13:39:20;96922.44;;;9.52
71640;BMP280;60912;48.968;10.124;2024-02-28T13:41:48;96922.25;;;9.63
71640;BMP280;60912;48.968;10.124;2024-02-28T13:44:17;96923.13;;;9.71
71640;BMP280;60912;48.968;10.124;2024-02-28T13:46:43;96921.34;;;9.73
71640;BMP280;60912;48.968;10.124;2024-02-28T13:49:08;96917.63;;;9.71
71640;BMP280;60912;48.968;10.124;2024-02-28T13:51:34;96919.47;;;9.50
71640;BMP280;60912;48.968;10.124;2024-02-28T13:53:59;96912.66;;;9.37
71640;BMP280;60912;48.968;10.124;2024-02-28T13:56:24;96915.41;;;9.37
71640;BMP280;60912;48.968;10.124;2024-02-28T13:58:50;96911.94;;;9.37
71640;BMP280;60912;48.968;10.124;2024-02-28T14:01:15;96910.03;;;9.32